sensor_id;sensor_type;location;lat;lon;timestamp;pressure;altitude;pressure_sealevel;temperature;humidity
58975;BME280;44751;52.236;5.178;2023-07-08T00:00:53;101698.53;;;21.39;100.00
58975;BME280;44751;52.236;5.178;2023-07-08T00:03:20;101691.78;;;21.23;100.00
58975;BME280;44751;52.236;5.178;2023-07-08T00:05:47;101691.78;;;21.23;100.00
58975;BME280;44751;52.236;5.178;2023-07-08T00:08:17;101684.66;;;21.34;100.00
58975;BME280;44751;52.236;5.178;2023-07-08T00:10:44;101676.09;;;21.12;100.00
58975;BME280;44751;52.236;5.178;2023-07-08T00:13:10;101676.69;;;21.14;100.00
58975;BME280;44751;52.236;5.178;2023-07-08T00:15:39;101665.81;;;21.07;100.00
58975;BME280;44751;52.236;5.178;2023-07-08T00:18:12;101665.72;;;21.14;100.00
58975;BME280;44751;52.236;5.178;2023-07-08T00:20:42;101672.81;;;21.22;100.00
58975;BME280;44751;52.236;5.178;2023-07-08T00:23:09;101662.56;;;20.98;100.00
58975;BME280;44751;52.236;5.178;2023-07-08T00:25:36;101662.38;;;20.93;100.00
58975;BME280;44751;52.236;5.178;2023-07-08T00:28:12;101663.22;;;20.94;100.00
58975;BME280;44751;52.236;5.178;2023-07-08T00:30:40;101666.19;;;20.92;100.00
58975;BME280;44751;52.236;5.178;2023-07-08T00:33:07;101665.63;;;20.83;100.00
58975;BME280;44751;52.236;5.178;2023-07-08T00:35:41;101665.84;;;20.88;100.00
58975;BME280;44751;52.236;5.178;2023-07-08T00:38:20;101668.09;;;20.92;100.00
58975;BME280;44751;52.236;5.178;2023-07-08T00:51:37;101648.78;;;20.61;100.00
58975;BME280;44751;52.236;5.178;2023-07-08T00:54:14;101649.56;;;20.68;100.00
58975;BME280;44751;52.236;5.178;2023-07-08T00:56:44;101652.16;;;20.63;100.00
58975;BME280;44751;52.236;5.178;2023-07-08T01:01:43;101657.94;;;20.55;100.00
58975;BME280;44751;52.236;5.178;2023-07-08T01:04:18;101654.19;;;20.49;100.00
58975;BME280;44751;52.236;5.178;2023-07-08T01:06:50;101657.31;;;20.52;100.00
58975;BME280;44751;52.236;5.178;2023-07-08T01:09:32;101649.84;;;20.41;100.00
58975;BME280;44751;52.236;5.178;2023-07-08T01:12:06;101651.81;;;20.52;100.00
58975;BME280;44751;52.236;5.178;2023-07-08T01:14:35;101639.56;;;20.36;100.00
58975;BME280;44751;52.236;5.178;2023-07-08T01:17:05;101636.28;;;20.28;100.00
58975;BME280;44751;52.236;5.178;2023-07-08T01:19:31;101629.28;;;20.32;100.00
58975;BME280;44751;52.236;5.178;2023-07-08T01:22:03;101634.59;;;20.27;100.00
58975;BME280;44751;52.236;5.178;2023-07-08T01:24:32;101623.88;;;20.25;100.00
58975;BME280;44751;52.236;5.178;2023-07-08T01:27:01;101618.81;;;20.22;100.00
58975;BME280;44751;52.236;5.178;2023-07-08T01:29:28;101618.59;;;20.23;100.00
58975;BME280;44751;52.236;5.178;2023-07-08T01:31:56;101624.22;;;20.10;100.00
58975;BME280;44751;52.236;5.178;2023-07-08T01:34:23;101617.22;;;20.14;100.00
58975;BME280;44751;52.236;5.178;2023-07-08T01:36:53;101623.75;;;20.13;100.00
58975;BME280;44751;52.236;5.178;2023-07-08T01:39:22;101622.16;;;20.05;100.00
58975;BME280;44751;52.236;5.178;2023-07-08T01:41:49;101616.91;;;19.97;100.00
58975;BME280;44751;52.236;5.178;2023-07-08T01:44:34;101622.81;;;20.00;100.00
58975;BME280;44751;52.236;5.178;2023-07-08T01:47:14;101616.88;;;20.04;100.00
58975;BME280;44751;52.236;5.178;2023-07-08T01:49:43;101610.59;;;19.96;100.00
58975;BME280;44751;52.236;5.178;2023-07-08T01:52:12;101620.16;;;19.87;100.00
58975;BME280;44751;52.236;5.178;2023-07-08T01:54:38;101615.44;;;20.01;100.00
58975;BME280;44751;52.236;5.178;2023-07-08T01:57:05;101608.94;;;19.95;100.00
58975;BME280;44751;52.236;5.178;2023-07-08T01:59:31;101609.31;;;20.06;100.00
58975;BME280;44751;52.236;5.178;2023-07-08T02:01:58;101595.66;;;19.92;100.00
58975;BME280;44751;52.236;5.178;2023-07-08T02:04:25;101591.31;;;19.84;100.00
58975;BME280;44751;52.236;5.178;2023-07-08T02:06:58;101597.69;;;19.78;100.00
58975;BME280;44751;52.236;5.178;2023-07-08T02:09:26;101597.09;;;19.76;100.00
58975;BME280;44751;52.236;5.178;2023-07-08T02:11:53;101583.19;;;19.78;100.00
58975;BME280;44751;52.236;5.178;2023-07-08T02:14:20;101584.84;;;19.79;100.00
58975;BME280;44751;52.236;5.178;2023-07-08T02:16:46;101582.09;;;19.79;100.00
58975;BME280;44751;52.236;5.178;2023-07-08T02:19:13;101588.47;;;19.72;100.00
58975;BME280;44751;52.236;5.178;2023-07-08T02:21:39;101584.78;;;19.85;100.00
58975;BME280;44751;52.236;5.178;2023-07-08T02:24:07;101582.66;;;19.87;100.00
58975;BME280;44751;52.236;5.178;2023-07-08T02:26:33;101580.44;;;19.78;100.00
58975;BME280;44751;52.236;5.178;2023-07-08T02:29:00;101579.66;;;19.70;100.00
58975;BME280;44751;52.236;5.178;2023-07-08T02:31:27;101580.09;;;19.67;100.00
58975;BME280;44751;52.236;5.178;2023-07-08T02:33:53;101574.84;;;19.66;100.00
58975;BME280;44751;52.236;5.178;2023-07-08T02:36:21;101574.66;;;19.60;100.00
58975;BME280;44751;52.236;5.178;2023-07-08T02:38:47;101569.19;;;19.60;100.00
58975;BME280;44751;52.236;5.178;2023-07-08T02:41:16;101573.22;;;19.58;100.00
58975;BME280;44751;52.236;5.178;2023-07-08T02:43:42;101564.06;;;19.45;100.00
58975;BME280;44751;52.236;5.178;2023-07-08T02:46:09;101561.06;;;19.47;100.00
58975;BME280;44751;52.236;5.178;2023-07-08T02:48:35;101566.31;;;19.48;100.00
58975;BME280;44751;52.236;5.178;2023-07-08T02:51:03;101566.03;;;19.57;100.00
58975;BME280;44751;52.236;5.178;2023-07-08T02:53:31;101565.13;;;19.38;100.00
58975;BME280;44751;52.236;5.178;2023-07-08T02:55:57;101563.81;;;19.47;100.00
58975;BME280;44751;52.236;5.178;2023-07-08T02:58:24;101556.88;;;19.44;100.00
58975;BME280;44751;52.236;5.178;2023-07-08T03:00:55;101558.31;;;19.47;100.00
58975;BME280;44751;52.236;5.178;2023-07-08T03:03:24;101555.03;;;19.38;100.00
58975;BME280;44751;52.236;5.178;2023-07-08T03:05:59;101562.53;;;19.50;100.00
58975;BME280;44751;52.236;5.178;2023-07-08T03:08:26;101551.28;;;19.32;100.00
58975;BME280;44751;52.236;5.178;2023-07-08T03:10:59;101554.59;;;19.41;100.00
58975;BME280;44751;52.236;5.178;2023-07-08T03:13:26;101554.88;;;19.33;100.00
58975;BME280;44751;52.236;5.178;2023-07-08T03:15:53;101555.59;;;19.47;100.00
58975;BME280;44751;52.236;5.178;2023-07-08T03:18:21;101552.03;;;19.46;100.00
58975;BME280;44751;52.236;5.178;2023-07-08T03:20:49;101554.34;;;19.43;100.00
58975;BME280;44751;52.236;5.178;2023-07-08T03:23:15;101558.78;;;19.44;100.00
58975;BME280;44751;52.236;5.178;2023-07-08T03:25:45;101555.22;;;19.43;100.00
58975;BME280;44751;52.236;5.178;2023-07-08T03:28:11;101555.97;;;19.25;100.00
58975;BME280;44751;52.236;5.178;2023-07-08T03:30:40;101558.44;;;19.33;100.00
58975;BME280;44751;52.236;5.178;2023-07-08T03:33:08;101559.09;;;19.29;100.00
58975;BME280;44751;52.236;5.178;2023-07-08T03:35:35;101563.31;;;19.31;100.00
58975;BME280;44751;52.236;5.178;2023-07-08T03:38:02;101561.91;;;19.15;100.00
58975;BME280;44751;52.236;5.178;2023-07-08T03:40:29;101564.38;;;19.23;100.00
58975;BME280;44751;52.236;5.178;2023-07-08T03:42:56;101573.66;;;19.22;100.00
58975;BME280;44751;52.236;5.178;2023-07-08T03:45:25;101564.13;;;19.32;100.00
58975;BME280;44751;52.236;5.178;2023-07-08T03:47:51;101562.56;;;19.17;100.00
58975;BME280;44751;52.236;5.178;2023-07-08T03:50:24;101560.84;;;19.23;100.00
58975;BME280;44751;52.236;5.178;2023-07-08T03:52:52;101566.75;;;19.20;100.00
58975;BME280;44751;52.236;5.178;2023-07-08T03:55:20;101570.72;;;19.24;100.00
58975;BME280;44751;52.236;5.178;2023-07-08T03:57:47;101570.13;;;19.15;100.00
58975;BME280;44751;52.236;5.178;2023-07-08T04:00:13;101561.53;;;19.12;100.00
58975;BME280;44751;52.236;5.178;2023-07-08T04:02:44;101566.31;;;19.16;100.00
58975;BME280;44751;52.236;5.178;2023-07-08T04:05:18;101572.44;;;19.18;100.00
58975;BME280;44751;52.236;5.178;2023-07-08T04:07:46;101574.09;;;19.19;100.00
58975;BME280;44751;52.236;5.178;2023-07-08T04:10:13;101570.75;;;19.10;100.00
58975;BME280;44751;52.236;5.178;2023-07-08T04:12:40;101563.56;;;19.23;100.00
58975;BME280;44751;52.236;5.178;2023-07-08T04:15:10;101565.06;;;19.19;100.00
58975;BME280;44751;52.236;5.178;2023-07-08T04:17:43;101567.81;;;19.12;100.00
58975;BME280;44751;52.236;5.178;2023-07-08T04:20:14;101569.25;;;19.21;100.00
58975;BME280;44751;52.236;5.178;2023-07-08T04:22:41;101563.78;;;19.21;100.00
58975;BME280;44751;52.236;5.178;2023-07-08T04:25:08;101564.81;;;19.27;100.00
58975;BME280;44751;52.236;5.178;2023-07-08T04:27:36;101567.81;;;19.12;100.00
58975;BME280;44751;52.236;5.178;2023-07-08T04:30:03;101558.13;;;19.16;100.00
58975;BME280;44751;52.236;5.178;2023-07-08T04:32:29;101556.44;;;19.15;100.00
58975;BME280;44751;52.236;5.178;2023-07-08T04:34:56;101567.56;;;19.20;100.00
58975;BME280;44751;52.236;5.178;2023-07-08T04:37:22;101566.25;;;19.30;100.00
58975;BME280;44751;52.236;5.178;2023-07-08T04:39:49;101564.66;;;19.15;100.00
58975;BME280;44751;52.236;5.178;2023-07-08T04:42:15;101575.28;;;19.30;100.00
58975;BME280;44751;52.236;5.178;2023-07-08T04:44:43;101566.66;;;19.33;100.00
58975;BME280;44751;52.236;5.178;2023-07-08T04:47:10;101570.00;;;19.35;100.00
58975;BME280;44751;52.236;5.178;2023-07-08T04:49:39;101578.78;;;19.44;100.00
58975;BME280;44751;52.236;5.178;2023-07-08T04:52:08;101571.41;;;19.45;100.00
58975;BME280;44751;52.236;5.178;2023-07-08T04:54:34;101574.19;;;19.38;100.00
58975;BME280;44751;52.236;5.178;2023-07-08T04:57:01;101573.88;;;19.53;100.00
58975;BME280;44751;52.236;5.178;2023-07-08T04:59:27;101572.25;;;19.45;100.00
58975;BME280;44751;52.236;5.178;2023-07-08T05:01:59;101572.47;;;19.44;100.00
58975;BME280;44751;52.236;5.178;2023-07-08T05:04:26;101569.69;;;19.51;100.00
58975;BME280;44751;52.236;5.178;2023-07-08T05:06:52;101570.13;;;19.47;100.00
58975;BME280;44751;52.236;5.178;2023-07-08T05:09:19;101566.69;;;19.59;100.00
58975;BME280;44751;52.236;5.178;2023-07-08T05:11:47;101571.53;;;19.57;100.00
58975;BME280;44751;52.236;5.178;2023-07-08T05:14:16;101571.78;;;19.55;100.00
58975;BME280;44751;52.236;5.178;2023-07-08T05:16:42;101564.16;;;19.57;100.00
58975;BME280;44751;52.236;5.178;2023-07-08T05:19:09;101558.31;;;19.54;100.00
58975;BME280;44751;52.236;5.178;2023-07-08T05:21:36;101556.09;;;19.63;100.00
58975;BME280;44751;52.236;5.178;2023-07-08T05:24:04;101552.72;;;19.67;100.00
58975;BME280;44751;52.236;5.178;2023-07-08T05:26:32;101553.16;;;19.64;100.00
58975;BME280;44751;52.236;5.178;2023-07-08T05:28:59;101555.44;;;19.67;100.00
58975;BME280;44751;52.236;5.178;2023-07-08T05:31:26;101555.78;;;19.78;100.00
58975;BME280;44751;52.236;5.178;2023-07-08T05:33:52;101556.25;;;19.74;100.00
58975;BME280;44751;52.236;5.178;2023-07-08T05:36:19;101564.00;;;19.78;100.00
58975;BME280;44751;52.236;5.178;2023-07-08T05:38:45;101563.44;;;19.94;100.00
58975;BME280;44751;52.236;5.178;2023-07-08T05:41:12;101566.91;;;20.08;100.00
58975;BME280;44751;52.236;5.178;2023-07-08T05:43:38;101550.06;;;20.05;100.00
58975;BME280;44751;52.236;5.178;2023-07-08T05:46:04;101557.56;;;20.16;100.00
58975;BME280;44751;52.236;5.178;2023-07-08T05:48:31;101560.44;;;20.21;100.00
58975;BME280;44751;52.236;5.178;2023-07-08T05:50:57;101561.50;;;20.20;100.00
58975;BME280;44751;52.236;5.178;2023-07-08T05:53:24;101565.72;;;20.42;100.00
58975;BME280;44751;52.236;5.178;2023-07-08T05:55:50;101565.19;;;20.33;100.00
58975;BME280;44751;52.236;5.178;2023-07-08T05:58:17;101568.22;;;20.24;100.00
58975;BME280;44751;52.236;5.178;2023-07-08T06:00:44;101556.97;;;20.33;100.00
58975;BME280;44751;52.236;5.178;2023-07-08T06:03:10;101560.53;;;20.33;100.00
58975;BME280;44751;52.236;5.178;2023-07-08T06:05:38;101559.22;;;20.73;100.00
58975;BME280;44751;52.236;5.178;2023-07-08T06:08:06;101564.56;;;20.68;100.00
58975;BME280;44751;52.236;5.178;2023-07-08T06:10:34;101566.63;;;20.73;100.00
58975;BME280;44751;52.236;5.178;2023-07-08T06:13:00;101573.31;;;20.96;100.00
58975;BME280;44751;52.236;5.178;2023-07-08T06:15:27;101565.00;;;21.02;100.00
58975;BME280;44751;52.236;5.178;2023-07-08T06:17:53;101560.75;;;21.19;100.00
58975;BME280;44751;52.236;5.178;2023-07-08T06:20:19;101560.31;;;21.34;100.00
58975;BME280;44751;52.236;5.178;2023-07-08T06:22:46;101554.13;;;21.38;100.00
58975;BME280;44751;52.236;5.178;2023-07-08T06:25:14;101562.81;;;21.35;100.00
58975;BME280;44751;52.236;5.178;2023-07-08T06:27:40;101563.91;;;21.46;100.00
58975;BME280;44751;52.236;5.178;2023-07-08T06:30:08;101557.50;;;21.64;100.00
58975;BME280;44751;52.236;5.178;2023-07-08T06:32:34;101571.66;;;21.80;100.00
58975;BME280;44751;52.236;5.178;2023-07-08T06:35:00;101573.69;;;21.97;100.00
58975;BME280;44751;52.236;5.178;2023-07-08T06:37:27;101559.00;;;21.91;100.00
58975;BME280;44751;52.236;5.178;2023-07-08T06:39:53;101569.28;;;22.08;100.00
58975;BME280;44751;52.236;5.178;2023-07-08T06:42:20;101567.59;;;22.18;100.00
58975;BME280;44751;52.236;5.178;2023-07-08T06:44:46;101575.94;;;22.24;100.00
58975;BME280;44751;52.236;5.178;2023-07-08T06:47:17;101569.09;;;22.50;100.00
58975;BME280;44751;52.236;5.178;2023-07-08T06:49:45;101578.97;;;22.75;100.00
58975;BME280;44751;52.236;5.178;2023-07-08T06:52:11;101574.00;;;23.01;100.00
58975;BME280;44751;52.236;5.178;2023-07-08T06:54:38;101577.78;;;23.12;100.00
58975;BME280;44751;52.236;5.178;2023-07-08T06:57:05;101574.63;;;23.20;100.00
58975;BME280;44751;52.236;5.178;2023-07-08T06:59:33;101574.13;;;23.24;100.00
58975;BME280;44751;52.236;5.178;2023-07-08T07:01:59;101579.81;;;23.34;100.00
58975;BME280;44751;52.236;5.178;2023-07-08T07:04:26;101576.13;;;23.57;100.00
58975;BME280;44751;52.236;5.178;2023-07-08T07:06:53;101574.53;;;23.62;100.00
58975;BME280;44751;52.236;5.178;2023-07-08T07:09:19;101570.69;;;23.63;100.00
58975;BME280;44751;52.236;5.178;2023-07-08T07:11:45;101568.44;;;23.77;100.00
58975;BME280;44751;52.236;5.178;2023-07-08T07:14:12;101567.81;;;23.92;100.00
58975;BME280;44751;52.236;5.178;2023-07-08T07:16:39;101566.91;;;24.03;100.00
58975;BME280;44751;52.236;5.178;2023-07-08T07:19:05;101565.97;;;24.32;100.00
58975;BME280;44751;52.236;5.178;2023-07-08T07:21:31;101560.38;;;24.49;100.00
58975;BME280;44751;52.236;5.178;2023-07-08T07:24:01;101559.75;;;24.64;100.00
58975;BME280;44751;52.236;5.178;2023-07-08T07:26:28;101560.63;;;24.92;99.86
58975;BME280;44751;52.236;5.178;2023-07-08T07:28:55;101557.56;;;24.44;100.00
58975;BME280;44751;52.236;5.178;2023-07-08T07:31:22;101560.56;;;24.42;100.00
58975;BME280;44751;52.236;5.178;2023-07-08T07:33:48;101559.28;;;24.50;100.00
58975;BME280;44751;52.236;5.178;2023-07-08T07:36:14;101558.69;;;24.93;98.39
58975;BME280;44751;52.236;5.178;2023-07-08T07:38:41;101553.84;;;25.05;97.42
58975;BME280;44751;52.236;5.178;2023-07-08T07:41:07;101560.59;;;25.14;96.96
58975;BME280;44751;52.236;5.178;2023-07-08T07:43:36;101568.59;;;25.44;97.09
58975;BME280;44751;52.236;5.178;2023-07-08T07:46:02;101564.88;;;25.60;95.13
58975;BME280;44751;52.236;5.178;2023-07-08T07:48:31;101573.38;;;25.53;91.89
58975;BME280;44751;52.236;5.178;2023-07-08T07:50:57;101557.44;;;25.61;95.75
58975;BME280;44751;52.236;5.178;2023-07-08T07:53:24;101561.34;;;26.13;93.67
58975;BME280;44751;52.236;5.178;2023-07-08T07:56:01;101554.50;;;26.21;91.43
58975;BME280;44751;52.236;5.178;2023-07-08T07:58:29;101546.97;;;26.11;91.88
58975;BME280;44751;52.236;5.178;2023-07-08T08:00:55;101546.28;;;26.37;89.54
58975;BME280;44751;52.236;5.178;2023-07-08T08:03:22;101550.75;;;26.43;89.42
58975;BME280;44751;52.236;5.178;2023-07-08T08:05:49;101554.78;;;26.94;89.17
58975;BME280;44751;52.236;5.178;2023-07-08T08:08:16;101547.56;;;26.93;89.22
58975;BME280;44751;52.236;5.178;2023-07-08T08:10:43;101550.44;;;27.35;89.27
58975;BME280;44751;52.236;5.178;2023-07-08T08:13:10;101550.97;;;27.42;89.41
58975;BME280;44751;52.236;5.178;2023-07-08T08:15:37;101552.66;;;27.58;87.52
58975;BME280;44751;52.236;5.178;2023-07-08T08:18:04;101554.59;;;27.53;83.97
58975;BME280;44751;52.236;5.178;2023-07-08T08:20:30;101555.97;;;27.45;84.18
58975;BME280;44751;52.236;5.178;2023-07-08T08:22:57;101548.19;;;27.89;81.17
58975;BME280;44751;52.236;5.178;2023-07-08T08:25:24;101550.91;;;28.09;84.22
58975;BME280;44751;52.236;5.178;2023-07-08T08:27:50;101561.16;;;28.14;79.91
58975;BME280;44751;52.236;5.178;2023-07-08T08:30:19;101555.59;;;28.30;79.77
58975;BME280;44751;52.236;5.178;2023-07-08T08:32:46;101557.44;;;28.50;77.92
58975;BME280;44751;52.236;5.178;2023-07-08T08:35:13;101559.50;;;28.79;79.12
58975;BME280;44751;52.236;5.178;2023-07-08T08:37:40;101559.81;;;28.72;77.46
58975;BME280;44751;52.236;5.178;2023-07-08T08:40:13;101559.53;;;28.74;77.69
58975;BME280;44751;52.236;5.178;2023-07-08T08:42:44;101554.97;;;29.04;76.92
58975;BME280;44751;52.236;5.178;2023-07-08T08:45:16;101563.25;;;29.44;75.45
58975;BME280;44751;52.236;5.178;2023-07-08T08:47:48;101555.03;;;29.63;75.28
58975;BME280;44751;52.236;5.178;2023-07-08T08:50:49;101563.19;;;29.20;75.69
58975;BME280;44751;52.236;5.178;2023-07-08T08:53:18;101583.56;;;29.39;73.31
58975;BME280;44751;52.236;5.178;2023-07-08T08:55:54;101583.44;;;29.90;76.66
58975;BME280;44751;52.236;5.178;2023-07-08T08:58:44;101582.88;;;30.42;77.20
58975;BME280;44751;52.236;5.178;2023-07-08T09:01:15;101574.53;;;30.86;73.92
58975;BME280;44751;52.236;5.178;2023-07-08T09:04:06;101578.25;;;30.81;70.61
58975;BME280;44751;52.236;5.178;2023-07-08T09:06:35;101581.25;;;31.04;71.43
58975;BME280;44751;52.236;5.178;2023-07-08T09:09:09;101577.25;;;31.10;71.04
58975;BME280;44751;52.236;5.178;2023-07-08T09:11:54;101584.19;;;31.13;68.83
58975;BME280;44751;52.236;5.178;2023-07-08T09:14:26;101576.81;;;31.03;69.86
58975;BME280;44751;52.236;5.178;2023-07-08T09:19:30;101573.53;;;31.53;67.16
58975;BME280;44751;52.236;5.178;2023-07-08T09:22:08;101578.59;;;32.41;66.13
58975;BME280;44751;52.236;5.178;2023-07-08T09:24:43;101576.34;;;32.94;65.11
58975;BME280;44751;52.236;5.178;2023-07-08T09:27:11;101573.22;;;32.95;65.70
58975;BME280;44751;52.236;5.178;2023-07-08T09:29:37;101575.09;;;32.86;63.08
58975;BME280;44751;52.236;5.178;2023-07-08T09:32:20;101578.09;;;33.27;62.85
58975;BME280;44751;52.236;5.178;2023-07-08T09:34:52;101577.22;;;33.40;60.89
58975;BME280;44751;52.236;5.178;2023-07-08T09:37:22;101575.72;;;33.97;61.60
58975;BME280;44751;52.236;5.178;2023-07-08T09:39:49;101575.13;;;34.09;62.42
58975;BME280;44751;52.236;5.178;2023-07-08T09:42:16;101578.69;;;34.01;57.10
58975;BME280;44751;52.236;5.178;2023-07-08T09:44:45;101575.22;;;33.95;57.89
58975;BME280;44751;52.236;5.178;2023-07-08T09:47:22;101573.03;;;33.83;58.43
58975;BME280;44751;52.236;5.178;2023-07-08T09:49:51;101578.53;;;34.38;57.73
58975;BME280;44751;52.236;5.178;2023-07-08T09:52:18;101571.59;;;34.35;55.74
58975;BME280;44751;52.236;5.178;2023-07-08T09:54:45;101566.84;;;34.45;54.77
58975;BME280;44751;52.236;5.178;2023-07-08T09:57:18;101574.00;;;35.04;55.41
58975;BME280;44751;52.236;5.178;2023-07-08T09:59:51;101574.66;;;35.19;56.40
58975;BME280;44751;52.236;5.178;2023-07-08T10:02:41;101570.06;;;35.88;52.62
58975;BME280;44751;52.236;5.178;2023-07-08T10:05:27;101565.78;;;35.25;50.73
58975;BME280;44751;52.236;5.178;2023-07-08T10:07:57;101580.44;;;34.96;51.73
58975;BME280;44751;52.236;5.178;2023-07-08T10:11:11;101582.88;;;35.50;50.23
58975;BME280;44751;52.236;5.178;2023-07-08T10:13:41;101578.72;;;35.65;50.68
58975;BME280;44751;52.236;5.178;2023-07-08T10:16:25;101586.97;;;35.62;50.01
58975;BME280;44751;52.236;5.178;2023-07-08T10:18:52;101590.00;;;35.30;50.70
58975;BME280;44751;52.236;5.178;2023-07-08T10:21:37;101586.47;;;35.60;50.75
58975;BME280;44751;52.236;5.178;2023-07-08T10:27:08;101582.81;;;36.16;50.17
58975;BME280;44751;52.236;5.178;2023-07-08T10:32:44;101566.34;;;36.05;49.72
58975;BME280;44751;52.236;5.178;2023-07-08T10:35:30;101574.06;;;36.26;49.16
58975;BME280;44751;52.236;5.178;2023-07-08T10:41:22;101568.13;;;36.19;48.20
58975;BME280;44751;52.236;5.178;2023-07-08T10:43:59;101573.47;;;36.63;49.07
58975;BME280;44751;52.236;5.178;2023-07-08T10:46:44;101569.06;;;36.32;48.29
58975;BME280;44751;52.236;5.178;2023-07-08T10:49:30;101575.19;;;35.86;47.47
58975;BME280;44751;52.236;5.178;2023-07-08T10:55:00;101565.59;;;35.87;50.08
58975;BME280;44751;52.236;5.178;2023-07-08T11:08:35;101557.16;;;34.86;49.66
58975;BME280;44751;52.236;5.178;2023-07-08T11:11:09;101554.50;;;34.05;50.28
58975;BME280;44751;52.236;5.178;2023-07-08T11:13:45;101547.44;;;34.08;51.88
58975;BME280;44751;52.236;5.178;2023-07-08T11:16:19;101544.25;;;34.41;52.40
58975;BME280;44751;52.236;5.178;2023-07-08T11:19:10;101545.09;;;34.50;50.16
58975;BME280;44751;52.236;5.178;2023-07-08T11:21:46;101551.28;;;34.21;48.21
58975;BME280;44751;52.236;5.178;2023-07-08T11:24:39;101551.53;;;34.60;49.74
58975;BME280;44751;52.236;5.178;2023-07-08T11:30:01;101549.13;;;34.85;48.70
58975;BME280;44751;52.236;5.178;2023-07-08T11:32:30;101557.16;;;34.86;46.07
58975;BME280;44751;52.236;5.178;2023-07-08T11:34:59;101552.06;;;35.06;46.97
58975;BME280;44751;52.236;5.178;2023-07-08T11:37:27;101541.88;;;34.75;46.43
58975;BME280;44751;52.236;5.178;2023-07-08T11:40:07;101546.78;;;35.31;47.95
58975;BME280;44751;52.236;5.178;2023-07-08T11:42:42;101541.31;;;35.44;46.30
58975;BME280;44751;52.236;5.178;2023-07-08T11:45:34;101538.97;;;35.46;45.29
58975;BME280;44751;52.236;5.178;2023-07-08T11:48:15;101541.84;;;34.93;44.40
58975;BME280;44751;52.236;5.178;2023-07-08T11:50:44;101537.03;;;35.02;46.41
58975;BME280;44751;52.236;5.178;2023-07-08T11:53:30;101529.13;;;35.13;45.39
58975;BME280;44751;52.236;5.178;2023-07-08T11:56:01;101537.84;;;35.38;45.91
58975;BME280;44751;52.236;5.178;2023-07-08T11:58:58;101535.38;;;35.36;44.52
58975;BME280;44751;52.236;5.178;2023-07-08T12:01:40;101538.13;;;35.54;43.83
58975;BME280;44751;52.236;5.178;2023-07-08T12:11:45;101520.19;;;35.37;43.10
58975;BME280;44751;52.236;5.178;2023-07-08T12:14:12;101525.81;;;35.37;42.64
58975;BME280;44751;52.236;5.178;2023-07-08T12:16:39;101521.28;;;35.72;43.39
58975;BME280;44751;52.236;5.178;2023-07-08T12:19:11;101515.56;;;35.33;42.37
58975;BME280;44751;52.236;5.178;2023-07-08T12:21:41;101522.69;;;35.30;43.11
58975;BME280;44751;52.236;5.178;2023-07-08T12:24:12;101514.59;;;35.85;43.18
58975;BME280;44751;52.236;5.178;2023-07-08T12:26:40;101521.84;;;35.86;42.09
58975;BME280;44751;52.236;5.178;2023-07-08T12:29:10;101509.31;;;35.36;42.32
58975;BME280;44751;52.236;5.178;2023-07-08T12:31:37;101513.72;;;35.54;42.44
58975;BME280;44751;52.236;5.178;2023-07-08T12:34:11;101509.44;;;35.87;43.17
58975;BME280;44751;52.236;5.178;2023-07-08T12:36:38;101507.03;;;36.07;42.36
58975;BME280;44751;52.236;5.178;2023-07-08T12:39:05;101508.69;;;36.08;41.43
58975;BME280;44751;52.236;5.178;2023-07-08T12:41:34;101516.09;;;36.43;42.24
58975;BME280;44751;52.236;5.178;2023-07-08T12:44:02;101505.13;;;36.29;40.94
58975;BME280;44751;52.236;5.178;2023-07-08T12:46:29;101509.31;;;36.14;40.23
58975;BME280;44751;52.236;5.178;2023-07-08T12:48:55;101513.94;;;36.18;41.51
58975;BME280;44751;52.236;5.178;2023-07-08T12:51:26;101504.97;;;36.47;41.58
58975;BME280;44751;52.236;5.178;2023-07-08T12:53:54;101506.09;;;36.76;40.30
58975;BME280;44751;52.236;5.178;2023-07-08T12:56:22;101503.88;;;36.17;41.08
58975;BME280;44751;52.236;5.178;2023-07-08T12:58:51;101508.88;;;36.03;43.03
58975;BME280;44751;52.236;5.178;2023-07-08T13:01:20;101505.34;;;35.85;42.36
58975;BME280;44751;52.236;5.178;2023-07-08T13:03:50;101493.25;;;35.93;40.85
58975;BME280;44751;52.236;5.178;2023-07-08T13:06:21;101494.69;;;36.29;41.08
58975;BME280;44751;52.236;5.178;2023-07-08T13:08:48;101491.31;;;35.85;40.67
58975;BME280;44751;52.236;5.178;2023-07-08T13:11:16;101491.41;;;35.97;41.83
58975;BME280;44751;52.236;5.178;2023-07-08T13:13:49;101501.47;;;35.68;39.74
58975;BME280;44751;52.236;5.178;2023-07-08T13:16:17;101503.41;;;36.07;40.70
58975;BME280;44751;52.236;5.178;2023-07-08T13:18:44;101502.84;;;36.43;40.79
58975;BME280;44751;52.236;5.178;2023-07-08T13:21:13;101502.31;;;36.72;41.99
58975;BME280;44751;52.236;5.178;2023-07-08T13:23:42;101505.00;;;36.68;42.34
58975;BME280;44751;52.236;5.178;2023-07-08T13:26:20;101494.75;;;36.63;41.84
58975;BME280;44751;52.236;5.178;2023-07-08T13:28:48;101487.47;;;36.71;40.72
58975;BME280;44751;52.236;5.178;2023-07-08T13:31:18;101490.88;;;36.55;38.62
58975;BME280;44751;52.236;5.178;2023-07-08T13:33:50;101493.34;;;36.57;39.82
58975;BME280;44751;52.236;5.178;2023-07-08T13:36:19;101500.47;;;36.33;40.58
58975;BME280;44751;52.236;5.178;2023-07-08T13:38:47;101492.28;;;36.19;41.15
58975;BME280;44751;52.236;5.178;2023-07-08T13:41:20;101464.97;;;36.50;40.50
58975;BME280;44751;52.236;5.178;2023-07-08T13:43:48;101496.69;;;35.99;42.08
58975;BME280;44751;52.236;5.178;2023-07-08T13:49:12;101496.75;;;36.63;39.67
58975;BME280;44751;52.236;5.178;2023-07-08T13:51:39;101497.09;;;36.40;42.04